sensor_id;sensor_type;location;lat;lon;timestamp;P1;durP1;ratioP1;P2;durP2;ratioP2
21426;SDS011;10874;49.452;11.050;2023-11-21T00:01:06;3.13;;;1.90;;
21426;SDS011;10874;49.452;11.050;2023-11-21T00:03:35;2.90;;;1.43;;
21426;SDS011;10874;49.452;11.050;2023-11-21T00:06:03;1.90;;;1.17;;
21426;SDS011;10874;49.452;11.050;2023-11-21T00:08:30;2.80;;;1.47;;
21426;SDS011;10874;49.452;11.050;2023-11-21T00:10:56;2.83;;;1.43;;
21426;SDS011;10874;49.452;11.050;2023-11-21T00:13:24;2.13;;;1.40;;
21426;SDS011;10874;49.452;11.050;2023-11-21T00:15:51;1.60;;;1.30;;
21426;SDS011;10874;49.452;11.050;2023-11-21T00:18:17;2.73;;;1.30;;
21426;SDS011;10874;49.452;11.050;2023-11-21T00:20:44;1.90;;;1.20;;
21426;SDS011;10874;49.452;11.050;2023-11-21T00:23:11;2.30;;;1.50;;
21426;SDS011;10874;49.452;11.050;2023-11-21T00:25:38;3.73;;;1.50;;
21426;SDS011;10874;49.452;11.050;2023-11-21T00:28:05;1.40;;;1.30;;
21426;SDS011;10874;49.452;11.050;2023-11-21T00:30:32;15.43;;;8.60;;
21426;SDS011;10874;49.452;11.050;2023-11-21T00:32:59;7.77;;;4.73;;
21426;SDS011;10874;49.452;11.050;2023-11-21T00:35:26;6.73;;;4.00;;
21426;SDS011;10874;49.452;11.050;2023-11-21T00:37:53;6.87;;;4.70;;
21426;SDS011;10874;49.452;11.050;2023-11-21T00:40:20;6.87;;;3.13;;
21426;SDS011;10874;49.452;11.050;2023-11-21T00:42:48;2.17;;;1.20;;
21426;SDS011;10874;49.452;11.050;2023-11-21T00:45:14;1.87;;;1.20;;
21426;SDS011;10874;49.452;11.050;2023-11-21T00:47:41;3.37;;;1.40;;
21426;SDS011;10874;49.452;11.050;2023-11-21T00:50:09;3.67;;;1.60;;
21426;SDS011;10874;49.452;11.050;2023-11-21T00:52:36;2.33;;;1.50;;
21426;SDS011;10874;49.452;11.050;2023-11-21T00:55:03;3.00;;;1.70;;
21426;SDS011;10874;49.452;11.050;2023-11-21T00:57:30;3.03;;;1.60;;
21426;SDS011;10874;49.452;11.050;2023-11-21T00:59:57;1.93;;;1.30;;
21426;SDS011;10874;49.452;11.050;2023-11-21T01:02:24;3.13;;;1.80;;
21426;SDS011;10874;49.452;11.050;2023-11-21T01:04:52;3.70;;;2.07;;
21426;SDS011;10874;49.452;11.050;2023-11-21T01:07:19;2.53;;;1.93;;
21426;SDS011;10874;49.452;11.050;2023-11-21T01:09:47;2.67;;;2.00;;
21426;SDS011;10874;49.452;11.050;2023-11-21T01:12:14;2.33;;;1.70;;
21426;SDS011;10874;49.452;11.050;2023-11-21T01:14:41;4.83;;;2.00;;
21426;SDS011;10874;49.452;11.050;2023-11-21T01:17:08;4.30;;;1.83;;
21426;SDS011;10874;49.452;11.050;2023-11-21T01:19:35;4.20;;;1.80;;
21426;SDS011;10874;49.452;11.050;2023-11-21T01:22:03;3.97;;;2.00;;
21426;SDS011;10874;49.452;11.050;2023-11-21T01:24:31;3.30;;;2.30;;
21426;SDS011;10874;49.452;11.050;2023-11-21T01:26:58;3.00;;;1.77;;
21426;SDS011;10874;49.452;11.050;2023-11-21T01:29:25;4.03;;;1.70;;
21426;SDS011;10874;49.452;11.050;2023-11-21T01:31:51;1.90;;;1.30;;
21426;SDS011;10874;49.452;11.050;2023-11-21T01:34:18;2.70;;;1.37;;
21426;SDS011;10874;49.452;11.050;2023-11-21T01:36:46;4.47;;;1.57;;
21426;SDS011;10874;49.452;11.050;2023-11-21T01:39:13;2.10;;;1.50;;
21426;SDS011;10874;49.452;11.050;2023-11-21T01:41:42;3.07;;;1.23;;
21426;SDS011;10874;49.452;11.050;2023-11-21T01:44:10;2.40;;;1.33;;
21426;SDS011;10874;49.452;11.050;2023-11-21T01:46:37;3.70;;;2.03;;
21426;SDS011;10874;49.452;11.050;2023-11-21T01:49:04;2.37;;;1.30;;
21426;SDS011;10874;49.452;11.050;2023-11-21T01:51:32;1.30;;;1.20;;
21426;SDS011;10874;49.452;11.050;2023-11-21T01:54:01;3.43;;;1.50;;
21426;SDS011;10874;49.452;11.050;2023-11-21T01:56:28;4.37;;;1.40;;
21426;SDS011;10874;49.452;11.050;2023-11-21T01:58:57;4.17;;;1.60;;
21426;SDS011;10874;49.452;11.050;2023-11-21T02:01:24;2.40;;;1.20;;
21426;SDS011;10874;49.452;11.050;2023-11-21T02:03:52;3.23;;;1.60;;
21426;SDS011;10874;49.452;11.050;2023-11-21T02:06:19;3.23;;;1.40;;
21426;SDS011;10874;49.452;11.050;2023-11-21T02:08:46;2.00;;;1.37;;
21426;SDS011;10874;49.452;11.050;2023-11-21T02:11:13;2.17;;;1.30;;
21426;SDS011;10874;49.452;11.050;2023-11-21T02:13:39;2.47;;;1.33;;
21426;SDS011;10874;49.452;11.050;2023-11-21T02:16:10;2.40;;;1.60;;
21426;SDS011;10874;49.452;11.050;2023-11-21T02:18:39;2.90;;;1.60;;
21426;SDS011;10874;49.452;11.050;2023-11-21T02:21:06;2.37;;;1.30;;
21426;SDS011;10874;49.452;11.050;2023-11-21T02:23:33;2.60;;;1.30;;
21426;SDS011;10874;49.452;11.050;2023-11-21T02:26:00;3.10;;;1.40;;
21426;SDS011;10874;49.452;11.050;2023-11-21T02:28:31;4.13;;;1.40;;
21426;SDS011;10874;49.452;11.050;2023-11-21T02:30:57;2.77;;;1.20;;
21426;SDS011;10874;49.452;11.050;2023-11-21T02:33:25;2.77;;;1.53;;
21426;SDS011;10874;49.452;11.050;2023-11-21T02:35:52;2.33;;;1.20;;
21426;SDS011;10874;49.452;11.050;2023-11-21T02:38:21;1.83;;;1.27;;
21426;SDS011;10874;49.452;11.050;2023-11-21T02:40:48;1.53;;;1.23;;
21426;SDS011;10874;49.452;11.050;2023-11-21T02:43:15;1.57;;;1.17;;
21426;SDS011;10874;49.452;11.050;2023-11-21T02:45:42;2.20;;;1.50;;
21426;SDS011;10874;49.452;11.050;2023-11-21T02:48:09;2.90;;;1.30;;
21426;SDS011;10874;49.452;11.050;2023-11-21T02:50:36;2.40;;;1.10;;
21426;SDS011;10874;49.452;11.050;2023-11-21T02:53:04;2.70;;;1.60;;
21426;SDS011;10874;49.452;11.050;2023-11-21T02:55:32;2.43;;;1.33;;
21426;SDS011;10874;49.452;11.050;2023-11-21T02:58:02;3.17;;;1.90;;
21426;SDS011;10874;49.452;11.050;2023-11-21T03:00:30;3.27;;;1.50;;
21426;SDS011;10874;49.452;11.050;2023-11-21T03:02:57;2.53;;;1.40;;
21426;SDS011;10874;49.452;11.050;2023-11-21T03:05:25;2.40;;;1.60;;
21426;SDS011;10874;49.452;11.050;2023-11-21T03:07:52;2.90;;;1.60;;
21426;SDS011;10874;49.452;11.050;2023-11-21T03:10:19;2.57;;;1.70;;
21426;SDS011;10874;49.452;11.050;2023-11-21T03:12:46;1.63;;;1.40;;
21426;SDS011;10874;49.452;11.050;2023-11-21T03:15:12;3.07;;;1.50;;
21426;SDS011;10874;49.452;11.050;2023-11-21T03:17:39;2.80;;;1.50;;
21426;SDS011;10874;49.452;11.050;2023-11-21T03:20:06;2.40;;;1.40;;
21426;SDS011;10874;49.452;11.050;2023-11-21T03:22:37;4.53;;;1.90;;
21426;SDS011;10874;49.452;11.050;2023-11-21T03:25:05;1.90;;;1.70;;
21426;SDS011;10874;49.452;11.050;2023-11-21T03:27:32;2.47;;;1.50;;
21426;SDS011;10874;49.452;11.050;2023-11-21T03:29:59;3.37;;;1.77;;
21426;SDS011;10874;49.452;11.050;2023-11-21T03:32:26;2.30;;;1.43;;
21426;SDS011;10874;49.452;11.050;2023-11-21T03:34:53;1.80;;;1.50;;
21426;SDS011;10874;49.452;11.050;2023-11-21T03:37:22;2.60;;;1.30;;
21426;SDS011;10874;49.452;11.050;2023-11-21T03:39:48;2.00;;;1.63;;
21426;SDS011;10874;49.452;11.050;2023-11-21T03:42:15;2.23;;;1.53;;
21426;SDS011;10874;49.452;11.050;2023-11-21T03:44:42;3.20;;;1.80;;
21426;SDS011;10874;49.452;11.050;2023-11-21T03:47:09;1.80;;;1.50;;
21426;SDS011;10874;49.452;11.050;2023-11-21T03:49:36;2.53;;;1.50;;
21426;SDS011;10874;49.452;11.050;2023-11-21T03:52:02;3.13;;;1.70;;
21426;SDS011;10874;49.452;11.050;2023-11-21T03:54:31;2.77;;;1.60;;
21426;SDS011;10874;49.452;11.050;2023-11-21T03:56:59;2.30;;;1.60;;
21426;SDS011;10874;49.452;11.050;2023-11-21T03:59:26;2.43;;;1.93;;
21426;SDS011;10874;49.452;11.050;2023-11-21T04:01:54;2.50;;;1.60;;
21426;SDS011;10874;49.452;11.050;2023-11-21T04:04:21;2.47;;;1.70;;
21426;SDS011;10874;49.452;11.050;2023-11-21T04:06:48;1.93;;;1.57;;
21426;SDS011;10874;49.452;11.050;2023-11-21T04:09:14;2.43;;;1.43;;
21426;SDS011;10874;49.452;11.050;2023-11-21T04:11:41;2.93;;;1.50;;
21426;SDS011;10874;49.452;11.050;2023-11-21T04:14:09;1.67;;;1.40;;
21426;SDS011;10874;49.452;11.050;2023-11-21T04:16:36;3.10;;;1.87;;
21426;SDS011;10874;49.452;11.050;2023-11-21T04:19:02;2.80;;;1.70;;
21426;SDS011;10874;49.452;11.050;2023-11-21T04:21:29;2.90;;;1.90;;
21426;SDS011;10874;49.452;11.050;2023-11-21T04:23:56;3.30;;;1.30;;
21426;SDS011;10874;49.452;11.050;2023-11-21T04:26:22;2.13;;;1.57;;
21426;SDS011;10874;49.452;11.050;2023-11-21T04:28:49;3.30;;;1.40;;
21426;SDS011;10874;49.452;11.050;2023-11-21T04:31:16;3.27;;;1.80;;
21426;SDS011;10874;49.452;11.050;2023-11-21T04:33:43;2.90;;;2.00;;
21426;SDS011;10874;49.452;11.050;2023-11-21T04:36:11;1.90;;;1.60;;
21426;SDS011;10874;49.452;11.050;2023-11-21T04:38:38;2.53;;;2.03;;
21426;SDS011;10874;49.452;11.050;2023-11-21T04:41:04;2.93;;;1.57;;
21426;SDS011;10874;49.452;11.050;2023-11-21T04:43:31;3.90;;;1.70;;
21426;SDS011;10874;49.452;11.050;2023-11-21T04:45:58;3.20;;;1.67;;
21426;SDS011;10874;49.452;11.050;2023-11-21T04:48:25;2.60;;;1.50;;
21426;SDS011;10874;49.452;11.050;2023-11-21T04:50:52;3.50;;;1.70;;
21426;SDS011;10874;49.452;11.050;2023-11-21T04:53:18;2.33;;;1.60;;
21426;SDS011;10874;49.452;11.050;2023-11-21T04:55:45;2.93;;;1.80;;
21426;SDS011;10874;49.452;11.050;2023-11-21T04:58:12;3.40;;;1.70;;
21426;SDS011;10874;49.452;11.050;2023-11-21T05:00:39;3.90;;;2.20;;
21426;SDS011;10874;49.452;11.050;2023-11-21T05:03:06;2.93;;;1.90;;
21426;SDS011;10874;49.452;11.050;2023-11-21T05:05:34;2.00;;;1.80;;
21426;SDS011;10874;49.452;11.050;2023-11-21T05:08:00;3.87;;;1.90;;
21426;SDS011;10874;49.452;11.050;2023-11-21T05:10:28;2.93;;;1.80;;
21426;SDS011;10874;49.452;11.050;2023-11-21T05:12:55;1.63;;;1.53;;
21426;SDS011;10874;49.452;11.050;2023-11-21T05:15:22;2.87;;;1.80;;
21426;SDS011;10874;49.452;11.050;2023-11-21T05:17:50;1.97;;;1.50;;
21426;SDS011;10874;49.452;11.050;2023-11-21T05:20:19;2.30;;;1.57;;
21426;SDS011;10874;49.452;11.050;2023-11-21T05:22:48;3.47;;;2.00;;
21426;SDS011;10874;49.452;11.050;2023-11-21T05:25:17;3.10;;;2.07;;
21426;SDS011;10874;49.452;11.050;2023-11-21T05:27:47;2.97;;;2.00;;
21426;SDS011;10874;49.452;11.050;2023-11-21T05:30:14;3.23;;;2.53;;
21426;SDS011;10874;49.452;11.050;2023-11-21T05:32:41;4.80;;;1.90;;
21426;SDS011;10874;49.452;11.050;2023-11-21T05:35:11;2.93;;;1.60;;
21426;SDS011;10874;49.452;11.050;2023-11-21T05:37:43;3.73;;;2.20;;
21426;SDS011;10874;49.452;11.050;2023-11-21T05:40:11;2.87;;;2.30;;
21426;SDS011;10874;49.452;11.050;2023-11-21T05:42:38;4.10;;;2.70;;
21426;SDS011;10874;49.452;11.050;2023-11-21T05:45:06;3.27;;;2.53;;
21426;SDS011;10874;49.452;11.050;2023-11-21T05:47:41;4.10;;;2.60;;
21426;SDS011;10874;49.452;11.050;2023-11-21T05:50:08;3.13;;;2.17;;
21426;SDS011;10874;49.452;11.050;2023-11-21T05:52:42;3.37;;;2.47;;
21426;SDS011;10874;49.452;11.050;2023-11-21T05:55:09;5.50;;;2.53;;
21426;SDS011;10874;49.452;11.050;2023-11-21T05:57:36;2.90;;;2.03;;
21426;SDS011;10874;49.452;11.050;2023-11-21T06:00:21;3.13;;;2.23;;
21426;SDS011;10874;49.452;11.050;2023-11-21T06:02:53;4.93;;;2.27;;
21426;SDS011;10874;49.452;11.050;2023-11-21T06:05:21;3.50;;;2.40;;
21426;SDS011;10874;49.452;11.050;2023-11-21T06:07:50;2.40;;;2.20;;
21426;SDS011;10874;49.452;11.050;2023-11-21T06:10:17;3.13;;;2.20;;
21426;SDS011;10874;49.452;11.050;2023-11-21T06:12:46;2.60;;;2.40;;
21426;SDS011;10874;49.452;11.050;2023-11-21T06:15:12;4.00;;;2.30;;
21426;SDS011;10874;49.452;11.050;2023-11-21T06:17:42;3.57;;;2.40;;
21426;SDS011;10874;49.452;11.050;2023-11-21T06:20:11;3.63;;;2.40;;
21426;SDS011;10874;49.452;11.050;2023-11-21T06:22:42;3.07;;;2.57;;
21426;SDS011;10874;49.452;11.050;2023-11-21T06:25:10;2.33;;;2.13;;
21426;SDS011;10874;49.452;11.050;2023-11-21T06:27:38;4.27;;;2.53;;
21426;SDS011;10874;49.452;11.050;2023-11-21T06:30:05;7.17;;;3.60;;
21426;SDS011;10874;49.452;11.050;2023-11-21T06:32:33;7.77;;;3.20;;
21426;SDS011;10874;49.452;11.050;2023-11-21T06:35:00;6.23;;;3.23;;
21426;SDS011;10874;49.452;11.050;2023-11-21T06:37:27;4.83;;;2.70;;
21426;SDS011;10874;49.452;11.050;2023-11-21T06:39:54;6.87;;;2.87;;
21426;SDS011;10874;49.452;11.050;2023-11-21T06:42:20;6.63;;;3.53;;
21426;SDS011;10874;49.452;11.050;2023-11-21T06:44:47;5.10;;;3.20;;
21426;SDS011;10874;49.452;11.050;2023-11-21T06:47:14;3.13;;;2.70;;
21426;SDS011;10874;49.452;11.050;2023-11-21T06:49:42;4.07;;;3.30;;
21426;SDS011;10874;49.452;11.050;2023-11-21T06:52:09;5.17;;;3.13;;
21426;SDS011;10874;49.452;11.050;2023-11-21T06:54:36;3.70;;;2.77;;
21426;SDS011;10874;49.452;11.050;2023-11-21T06:57:03;5.93;;;3.90;;
21426;SDS011;10874;49.452;11.050;2023-11-21T06:59:30;6.33;;;3.40;;
21426;SDS011;10874;49.452;11.050;2023-11-21T07:01:57;4.63;;;3.40;;
21426;SDS011;10874;49.452;11.050;2023-11-21T07:04:24;4.57;;;3.37;;
21426;SDS011;10874;49.452;11.050;2023-11-21T07:06:53;4.73;;;2.97;;
21426;SDS011;10874;49.452;11.050;2023-11-21T07:09:20;4.07;;;2.80;;
21426;SDS011;10874;49.452;11.050;2023-11-21T07:11:49;3.87;;;2.80;;
21426;SDS011;10874;49.452;11.050;2023-11-21T07:14:16;5.07;;;2.97;;
21426;SDS011;10874;49.452;11.050;2023-11-21T07:16:46;4.80;;;2.93;;
21426;SDS011;10874;49.452;11.050;2023-11-21T07:19:13;5.33;;;3.13;;
21426;SDS011;10874;49.452;11.050;2023-11-21T07:21:40;8.03;;;3.10;;
21426;SDS011;10874;49.452;11.050;2023-11-21T07:24:07;5.13;;;2.50;;
21426;SDS011;10874;49.452;11.050;2023-11-21T07:26:34;3.90;;;2.83;;
21426;SDS011;10874;49.452;11.050;2023-11-21T07:29:01;4.20;;;3.07;;
21426;SDS011;10874;49.452;11.050;2023-11-21T07:31:29;5.03;;;2.90;;
21426;SDS011;10874;49.452;11.050;2023-11-21T07:33:56;6.23;;;2.90;;
21426;SDS011;10874;49.452;11.050;2023-11-21T07:36:26;5.97;;;2.77;;
21426;SDS011;10874;49.452;11.050;2023-11-21T07:38:53;4.10;;;2.77;;
21426;SDS011;10874;49.452;11.050;2023-11-21T07:41:20;3.67;;;2.87;;
21426;SDS011;10874;49.452;11.050;2023-11-21T07:43:57;4.30;;;2.60;;
21426;SDS011;10874;49.452;11.050;2023-11-21T07:46:24;5.97;;;2.77;;
21426;SDS011;10874;49.452;11.050;2023-11-21T07:48:52;5.37;;;2.87;;
21426;SDS011;10874;49.452;11.050;2023-11-21T07:51:20;3.70;;;3.30;;
21426;SDS011;10874;49.452;11.050;2023-11-21T07:53:46;4.77;;;3.07;;
21426;SDS011;10874;49.452;11.050;2023-11-21T07:56:13;3.70;;;3.23;;
21426;SDS011;10874;49.452;11.050;2023-11-21T07:58:40;4.37;;;3.03;;
21426;SDS011;10874;49.452;11.050;2023-11-21T08:01:07;9.37;;;3.43;;
21426;SDS011;10874;49.452;11.050;2023-11-21T08:03:34;5.90;;;3.23;;
21426;SDS011;10874;49.452;11.050;2023-11-21T08:06:01;4.80;;;3.27;;
21426;SDS011;10874;49.452;11.050;2023-11-21T08:08:30;5.03;;;3.20;;
21426;SDS011;10874;49.452;11.050;2023-11-21T08:10:56;5.60;;;3.53;;
21426;SDS011;10874;49.452;11.050;2023-11-21T08:13:24;4.37;;;3.40;;
21426;SDS011;10874;49.452;11.050;2023-11-21T08:15:56;5.43;;;3.20;;
21426;SDS011;10874;49.452;11.050;2023-11-21T08:18:23;6.03;;;3.30;;
21426;SDS011;10874;49.452;11.050;2023-11-21T08:20:50;5.03;;;3.40;;
21426;SDS011;10874;49.452;11.050;2023-11-21T08:23:17;4.80;;;3.37;;
21426;SDS011;10874;49.452;11.050;2023-11-21T08:25:44;7.97;;;4.17;;
21426;SDS011;10874;49.452;11.050;2023-11-21T08:28:11;5.60;;;3.53;;
21426;SDS011;10874;49.452;11.050;2023-11-21T08:30:38;5.43;;;4.30;;
21426;SDS011;10874;49.452;11.050;2023-11-21T08:33:05;5.20;;;3.83;;
21426;SDS011;10874;49.452;11.050;2023-11-21T08:35:32;6.47;;;4.40;;
21426;SDS011;10874;49.452;11.050;2023-11-21T08:37:58;7.60;;;4.03;;
21426;SDS011;10874;49.452;11.050;2023-11-21T08:40:25;5.00;;;4.00;;
21426;SDS011;10874;49.452;11.050;2023-11-21T08:42:52;4.00;;;3.50;;
21426;SDS011;10874;49.452;11.050;2023-11-21T08:45:19;4.87;;;3.90;;
21426;SDS011;10874;49.452;11.050;2023-11-21T08:47:46;4.37;;;3.90;;
21426;SDS011;10874;49.452;11.050;2023-11-21T08:50:13;6.90;;;3.73;;
21426;SDS011;10874;49.452;11.050;2023-11-21T08:52:41;4.80;;;3.80;;
21426;SDS011;10874;49.452;11.050;2023-11-21T08:55:08;5.63;;;3.77;;
21426;SDS011;10874;49.452;11.050;2023-11-21T08:57:35;5.43;;;4.00;;
21426;SDS011;10874;49.452;11.050;2023-11-21T09:00:02;4.63;;;3.87;;
21426;SDS011;10874;49.452;11.050;2023-11-21T09:02:29;6.07;;;5.47;;
21426;SDS011;10874;49.452;11.050;2023-11-21T09:04:56;5.40;;;4.90;;
21426;SDS011;10874;49.452;11.050;2023-11-21T09:07:23;4.80;;;4.40;;
21426;SDS011;10874;49.452;11.050;2023-11-21T09:09:50;8.20;;;4.70;;
21426;SDS011;10874;49.452;11.050;2023-11-21T09:12:17;7.20;;;5.10;;
21426;SDS011;10874;49.452;11.050;2023-11-21T09:14:46;7.67;;;4.93;;
21426;SDS011;10874;49.452;11.050;2023-11-21T09:17:13;6.73;;;5.90;;
21426;SDS011;10874;49.452;11.050;2023-11-21T09:19:40;8.70;;;5.57;;
21426;SDS011;10874;49.452;11.050;2023-11-21T09:22:07;6.23;;;5.47;;
21426;SDS011;10874;49.452;11.050;2023-11-21T09:24:34;5.70;;;5.20;;
21426;SDS011;10874;49.452;11.050;2023-11-21T09:27:03;5.63;;;5.03;;
21426;SDS011;10874;49.452;11.050;2023-11-21T09:29:31;5.93;;;5.17;;
21426;SDS011;10874;49.452;11.050;2023-11-21T09:31:58;5.87;;;5.00;;
21426;SDS011;10874;49.452;11.050;2023-11-21T09:34:28;5.87;;;5.27;;
21426;SDS011;10874;49.452;11.050;2023-11-21T09:36:55;5.00;;;4.50;;
21426;SDS011;10874;49.452;11.050;2023-11-21T09:39:21;5.67;;;5.13;;
21426;SDS011;10874;49.452;11.050;2023-11-21T09:44:17;6.73;;;4.80;;
21426;SDS011;10874;49.452;11.050;2023-11-21T09:46:44;5.53;;;5.03;;
21426;SDS011;10874;49.452;11.050;2023-11-21T09:49:15;5.93;;;4.90;;
21426;SDS011;10874;49.452;11.050;2023-11-21T09:51:45;6.47;;;5.40;;
21426;SDS011;10874;49.452;11.050;2023-11-21T09:54:13;6.77;;;5.37;;
21426;SDS011;10874;49.452;11.050;2023-11-21T09:56:42;7.87;;;5.13;;
21426;SDS011;10874;49.452;11.050;2023-11-21T09:59:13;6.13;;;5.40;;
21426;SDS011;10874;49.452;11.050;2023-11-21T10:01:40;6.07;;;5.00;;
21426;SDS011;10874;49.452;11.050;2023-11-21T10:04:07;7.30;;;5.30;;
21426;SDS011;10874;49.452;11.050;2023-11-21T10:06:41;7.80;;;6.00;;
21426;SDS011;10874;49.452;11.050;2023-11-21T10:09:09;6.13;;;5.03;;
21426;SDS011;10874;49.452;11.050;2023-11-21T10:11:41;6.97;;;6.13;;
21426;SDS011;10874;49.452;11.050;2023-11-21T10:14:08;7.30;;;5.27;;
21426;SDS011;10874;49.452;11.050;2023-11-21T10:16:37;5.97;;;5.00;;
21426;SDS011;10874;49.452;11.050;2023-11-21T10:19:05;5.90;;;4.67;;
21426;SDS011;10874;49.452;11.050;2023-11-21T10:21:38;6.33;;;5.47;;
21426;SDS011;10874;49.452;11.050;2023-11-21T10:24:05;5.30;;;4.63;;
21426;SDS011;10874;49.452;11.050;2023-11-21T10:26:32;5.63;;;4.73;;
21426;SDS011;10874;49.452;11.050;2023-11-21T10:29:12;7.07;;;4.70;;
21426;SDS011;10874;49.452;11.050;2023-11-21T10:31:43;7.87;;;4.93;;
21426;SDS011;10874;49.452;11.050;2023-11-21T10:34:15;5.53;;;4.37;;
21426;SDS011;10874;49.452;11.050;2023-11-21T10:36:42;5.37;;;4.57;;
21426;SDS011;10874;49.452;11.050;2023-11-21T10:39:09;5.23;;;4.27;;
21426;SDS011;10874;49.452;11.050;2023-11-21T10:41:40;4.80;;;4.40;;
21426;SDS011;10874;49.452;11.050;2023-11-21T10:44:06;7.23;;;5.17;;
21426;SDS011;10874;49.452;11.050;2023-11-21T10:46:36;5.53;;;4.50;;
21426;SDS011;10874;49.452;11.050;2023-11-21T10:49:03;5.87;;;4.83;;
21426;SDS011;10874;49.452;11.050;2023-11-21T10:51:30;4.90;;;4.40;;
21426;SDS011;10874;49.452;11.050;2023-11-21T10:53:57;6.97;;;4.83;;
21426;SDS011;10874;49.452;11.050;2023-11-21T10:56:25;5.37;;;4.60;;
21426;SDS011;10874;49.452;11.050;2023-11-21T10:58:53;6.87;;;4.33;;
21426;SDS011;10874;49.452;11.050;2023-11-21T11:01:20;4.03;;;3.63;;
21426;SDS011;10874;49.452;11.050;2023-11-21T11:03:50;4.30;;;3.83;;
21426;SDS011;10874;49.452;11.050;2023-11-21T11:06:17;4.60;;;3.93;;
21426;SDS011;10874;49.452;11.050;2023-11-21T11:08:44;4.37;;;3.83;;
21426;SDS011;10874;49.452;11.050;2023-11-21T11:11:12;3.77;;;3.33;;
21426;SDS011;10874;49.452;11.050;2023-11-21T11:13:43;3.77;;;3.23;;
21426;SDS011;10874;49.452;11.050;2023-11-21T11:16:11;4.07;;;3.60;;
21426;SDS011;10874;49.452;11.050;2023-11-21T11:18:38;4.87;;;3.50;;
21426;SDS011;10874;49.452;11.050;2023-11-21T11:23:52;3.40;;;3.03;;
21426;SDS011;10874;49.452;11.050;2023-11-21T11:31:50;3.27;;;2.93;;
21426;SDS011;10874;49.452;11.050;2023-11-21T11:34:28;3.43;;;3.10;;
21426;SDS011;10874;49.452;11.050;2023-11-21T11:37:00;3.23;;;2.80;;
21426;SDS011;10874;49.452;11.050;2023-11-21T11:39:30;4.80;;;2.73;;
21426;SDS011;10874;49.452;11.050;2023-11-21T11:41:58;3.00;;;2.80;;
21426;SDS011;10874;49.452;11.050;2023-11-21T11:49:57;3.63;;;2.87;;
21426;SDS011;10874;49.452;11.050;2023-11-21T11:52:37;4.47;;;3.13;;
21426;SDS011;10874;49.452;11.050;2023-11-21T11:55:09;2.70;;;2.50;;
21426;SDS011;10874;49.452;11.050;2023-11-21T11:57:40;4.37;;;3.37;;
21426;SDS011;10874;49.452;11.050;2023-11-21T12:00:11;3.20;;;2.50;;
21426;SDS011;10874;49.452;11.050;2023-11-21T12:02:38;3.67;;;3.10;;
21426;SDS011;10874;49.452;11.050;2023-11-21T12:05:12;4.07;;;2.97;;
21426;SDS011;10874;49.452;11.050;2023-11-21T12:08:25;3.97;;;2.93;;
21426;SDS011;10874;49.452;11.050;2023-11-21T12:10:33;4.87;;;3.37;;
21426;SDS011;10874;49.452;11.050;2023-11-21T12:15:26;3.67;;;3.37;;
21426;SDS011;10874;49.452;11.050;2023-11-21T12:17:57;3.30;;;3.00;;
21426;SDS011;10874;49.452;11.050;2023-11-21T12:20:25;4.43;;;3.60;;
21426;SDS011;10874;49.452;11.050;2023-11-21T12:22:53;5.03;;;4.00;;
21426;SDS011;10874;49.452;11.050;2023-11-21T12:25:24;4.03;;;3.40;;
21426;SDS011;10874;49.452;11.050;2023-11-21T12:27:53;4.40;;;4.00;;
21426;SDS011;10874;49.452;11.050;2023-11-21T12:30:22;3.83;;;3.47;;
21426;SDS011;10874;49.452;11.050;2023-11-21T12:32:49;4.40;;;4.00;;
21426;SDS011;10874;49.452;11.050;2023-11-21T12:35:18;4.40;;;4.00;;
21426;SDS011;10874;49.452;11.050;2023-11-21T12:37:48;5.00;;;4.07;;
21426;SDS011;10874;49.452;11.050;2023-11-21T12:40:15;5.83;;;4.53;;
21426;SDS011;10874;49.452;11.050;2023-11-21T12:42:43;4.67;;;4.27;;
21426;SDS011;10874;49.452;11.050;2023-11-21T12:45:17;5.67;;;4.10;;
21426;SDS011;10874;49.452;11.050;2023-11-21T12:47:45;6.17;;;5.07;;
21426;SDS011;10874;49.452;11.050;2023-11-21T12:50:12;4.67;;;4.27;;
21426;SDS011;10874;49.452;11.050;2023-11-21T12:52:44;5.60;;;3.87;;
21426;SDS011;10874;49.452;11.050;2023-11-21T12:55:15;5.33;;;4.83;;
21426;SDS011;10874;49.452;11.050;2023-11-21T12:57:42;6.13;;;4.57;;
21426;SDS011;10874;49.452;11.050;2023-11-21T13:00:11;5.30;;;4.07;;
21426;SDS011;10874;49.452;11.050;2023-11-21T13:02:41;5.33;;;4.23;;
21426;SDS011;10874;49.452;11.050;2023-11-21T13:05:09;6.30;;;4.40;;
21426;SDS011;10874;49.452;11.050;2023-11-21T13:07:48;5.33;;;4.20;;
21426;SDS011;10874;49.452;11.050;2023-11-21T13:10:16;6.43;;;5.23;;
21426;SDS011;10874;49.452;11.050;2023-11-21T13:12:43;6.43;;;4.27;;
21426;SDS011;10874;49.452;11.050;2023-11-21T13:15:14;5.47;;;4.30;;
21426;SDS011;10874;49.452;11.050;2023-11-21T13:17:45;5.47;;;4.07;;
21426;SDS011;10874;49.452;11.050;2023-11-21T13:20:12;5.60;;;3.90;;
21426;SDS011;10874;49.452;11.050;2023-11-21T13:25:13;5.30;;;4.63;;
21426;SDS011;10874;49.452;11.050;2023-11-21T13:27:41;4.53;;;4.13;;
21426;SDS011;10874;49.452;11.050;2023-11-21T13:30:09;4.53;;;4.13;;
21426;SDS011;10874;49.452;11.050;2023-11-21T13:32:36;6.77;;;4.30;;
21426;SDS011;10874;49.452;11.050;2023-11-21T13:35:03;6.20;;;3.90;;
21426;SDS011;10874;49.452;11.050;2023-11-21T13:37:34;6.80;;;3.70;;
21426;SDS011;10874;49.452;11.050;2023-11-21T13:40:01;3.57;;;3.23;;
21426;SDS011;10874;49.452;11.050;2023-11-21T13:42:36;3.80;;;3.13;;
21426;SDS011;10874;49.452;11.050;2023-11-21T13:45:05;3.53;;;2.87;;
21426;SDS011;10874;49.452;11.050;2023-11-21T13:47:32;3.30;;;3.00;;
21426;SDS011;10874;49.452;11.050;2023-11-21T14:04:41;5.30;;;3.13;;
21426;SDS011;10874;49.452;11.050;2023-11-21T14:07:23;3.93;;;2.50;;
21426;SDS011;10874;49.452;11.050;2023-11-21T14:09:58;2.53;;;2.17;;
21426;SDS011;10874;49.452;11.050;2023-11-21T14:12:25;3.03;;;2.57;;
21426;SDS011;10874;49.452;11.050;2023-11-21T14:14:52;2.73;;;2.53;;
21426;SDS011;10874;49.452;11.050;2023-11-21T14:17:20;2.53;;;2.30;;
21426;SDS011;10874;49.452;11.050;2023-11-21T14:19:49;4.93;;;2.20;;
21426;SDS011;10874;49.452;11.050;2023-11-21T14:22:16;3.63;;;1.80;;
21426;SDS011;10874;49.452;11.050;2023-11-21T14:24:43;3.50;;;2.10;;
21426;SDS011;10874;49.452;11.050;2023-11-21T14:27:13;2.80;;;1.90;;
21426;SDS011;10874;49.452;11.050;2023-11-21T14:29:41;5.50;;;2.63;;
21426;SDS011;10874;49.452;11.050;2023-11-21T14:32:11;6.63;;;3.17;;
21426;SDS011;10874;49.452;11.050;2023-11-21T14:34:39;3.93;;;2.87;;
21426;SDS011;10874;49.452;11.050;2023-11-21T14:37:07;4.57;;;2.50;;
21426;SDS011;10874;49.452;11.050;2023-11-21T14:39:34;4.03;;;2.13;;
21426;SDS011;10874;49.452;11.050;2023-11-21T14:42:07;3.00;;;2.70;;
21426;SDS011;10874;49.452;11.050;2023-11-21T14:44:34;3.10;;;2.10;;
21426;SDS011;10874;49.452;11.050;2023-11-21T14:47:05;3.37;;;2.40;;
21426;SDS011;10874;49.452;11.050;2023-11-21T14:49:39;3.97;;;2.57;;
21426;SDS011;10874;49.452;11.050;2023-11-21T14:52:22;3.97;;;2.40;;
21426;SDS011;10874;49.452;11.050;2023-11-21T14:55:03;5.30;;;2.50;;
21426;SDS011;10874;49.452;11.050;2023-11-21T14:57:47;3.97;;;1.90;;
21426;SDS011;10874;49.452;11.050;2023-11-21T15:00:17;3.30;;;2.23;;
21426;SDS011;10874;49.452;11.050;2023-11-21T15:03:03;3.93;;;2.30;;
21426;SDS011;10874;49.452;11.050;2023-11-21T15:05:31;4.50;;;2.73;;
21426;SDS011;10874;49.452;11.050;2023-11-21T15:07:58;2.77;;;2.40;;
21426;SDS011;10874;49.452;11.050;2023-11-21T15:10:38;2.37;;;2.03;;
21426;SDS011;10874;49.452;11.050;2023-11-21T15:13:13;5.10;;;2.40;;
21426;SDS011;10874;49.452;11.050;2023-11-21T15:15:41;4.27;;;2.00;;